sensor_id;sensor_type;location;lat;lon;timestamp;P1;durP1;ratioP1;P2;durP2;ratioP2
54795;SDS011;40693;43.884;20.340;2022-08-04T00:00:39;7.03;;;6.28;;
54795;SDS011;40693;43.884;20.340;2022-08-04T00:05:51;6.70;;;5.22;;
54795;SDS011;40693;43.884;20.340;2022-08-04T00:08:43;9.32;;;5.90;;
54795;SDS011;40693;43.884;20.340;2022-08-04T00:11:32;8.05;;;6.32;;
54795;SDS011;40693;43.884;20.340;2022-08-04T00:14:05;10.57;;;6.10;;
54795;SDS011;40693;43.884;20.340;2022-08-04T00:16:37;6.65;;;5.50;;
54795;SDS011;40693;43.884;20.340;2022-08-04T00:21:37;9.27;;;6.32;;
54795;SDS011;40693;43.884;20.340;2022-08-04T00:24:05;9.70;;;7.35;;
54795;SDS011;40693;43.884;20.340;2022-08-04T00:26:32;9.73;;;5.50;;
54795;SDS011;40693;43.884;20.340;2022-08-04T00:28:58;9.02;;;5.40;;
54795;SDS011;40693;43.884;20.340;2022-08-04T00:31:25;7.25;;;5.15;;
54795;SDS011;40693;43.884;20.340;2022-08-04T00:33:53;7.72;;;6.38;;
54795;SDS011;40693;43.884;20.340;2022-08-04T00:36:19;8.02;;;6.40;;
54795;SDS011;40693;43.884;20.340;2022-08-04T00:38:46;5.90;;;5.38;;
54795;SDS011;40693;43.884;20.340;2022-08-04T00:41:16;10.05;;;5.50;;
54795;SDS011;40693;43.884;20.340;2022-08-04T00:43:59;8.90;;;6.25;;
54795;SDS011;40693;43.884;20.340;2022-08-04T00:52:22;9.68;;;6.40;;
54795;SDS011;40693;43.884;20.340;2022-08-04T00:55:04;8.13;;;6.03;;
54795;SDS011;40693;43.884;20.340;2022-08-04T00:58:21;9.32;;;6.25;;
54795;SDS011;40693;43.884;20.340;2022-08-04T01:04:09;9.50;;;6.07;;
54795;SDS011;40693;43.884;20.340;2022-08-04T01:13:11;8.32;;;7.20;;
54795;SDS011;40693;43.884;20.340;2022-08-04T01:15:53;9.57;;;6.75;;
54795;SDS011;40693;43.884;20.340;2022-08-04T01:18:29;7.85;;;6.28;;
54795;SDS011;40693;43.884;20.340;2022-08-04T01:27:05;9.18;;;6.20;;
54795;SDS011;40693;43.884;20.340;2022-08-04T01:29:54;6.90;;;5.75;;
54795;SDS011;40693;43.884;20.340;2022-08-04T01:32:40;8.23;;;6.75;;
54795;SDS011;40693;43.884;20.340;2022-08-04T01:38:04;8.38;;;6.63;;
54795;SDS011;40693;43.884;20.340;2022-08-04T01:40:59;8.23;;;6.32;;
54795;SDS011;40693;43.884;20.340;2022-08-04T01:43:32;8.30;;;7.35;;
54795;SDS011;40693;43.884;20.340;2022-08-04T01:46:18;9.55;;;7.82;;
54795;SDS011;40693;43.884;20.340;2022-08-04T01:48:46;9.90;;;6.72;;
54795;SDS011;40693;43.884;20.340;2022-08-04T01:51:17;8.20;;;6.70;;
54795;SDS011;40693;43.884;20.340;2022-08-04T01:53:46;8.20;;;6.90;;
54795;SDS011;40693;43.884;20.340;2022-08-04T01:56:12;10.20;;;7.10;;
54795;SDS011;40693;43.884;20.340;2022-08-04T01:58:38;8.63;;;6.90;;
54795;SDS011;40693;43.884;20.340;2022-08-04T02:01:05;7.65;;;6.55;;
54795;SDS011;40693;43.884;20.340;2022-08-04T02:03:35;8.35;;;6.85;;
54795;SDS011;40693;43.884;20.340;2022-08-04T02:11:45;8.88;;;7.20;;
54795;SDS011;40693;43.884;20.340;2022-08-04T02:14:41;7.88;;;6.53;;
54795;SDS011;40693;43.884;20.340;2022-08-04T02:17:12;8.60;;;7.38;;
54795;SDS011;40693;43.884;20.340;2022-08-04T02:22:24;9.32;;;6.60;;
54795;SDS011;40693;43.884;20.340;2022-08-04T02:24:59;9.25;;;6.75;;
54795;SDS011;40693;43.884;20.340;2022-08-04T02:27:48;9.75;;;6.95;;
54795;SDS011;40693;43.884;20.340;2022-08-04T02:30:18;9.18;;;7.15;;
54795;SDS011;40693;43.884;20.340;2022-08-04T02:32:44;7.78;;;5.90;;
54795;SDS011;40693;43.884;20.340;2022-08-04T02:35:19;9.00;;;7.43;;
54795;SDS011;40693;43.884;20.340;2022-08-04T02:37:55;9.55;;;7.07;;
54795;SDS011;40693;43.884;20.340;2022-08-04T02:40:30;8.93;;;7.32;;
54795;SDS011;40693;43.884;20.340;2022-08-04T02:42:56;10.35;;;7.95;;
54795;SDS011;40693;43.884;20.340;2022-08-04T02:45:24;8.23;;;6.88;;
54795;SDS011;40693;43.884;20.340;2022-08-04T02:47:51;8.63;;;7.65;;
54795;SDS011;40693;43.884;20.340;2022-08-04T02:50:18;9.80;;;6.72;;
54795;SDS011;40693;43.884;20.340;2022-08-04T02:52:46;11.05;;;7.50;;
54795;SDS011;40693;43.884;20.340;2022-08-04T02:55:14;8.90;;;7.68;;
54795;SDS011;40693;43.884;20.340;2022-08-04T02:57:42;8.30;;;7.50;;
54795;SDS011;40693;43.884;20.340;2022-08-04T03:00:12;7.95;;;6.68;;
54795;SDS011;40693;43.884;20.340;2022-08-04T03:05:18;8.32;;;7.13;;
54795;SDS011;40693;43.884;20.340;2022-08-04T03:26:57;9.68;;;7.35;;
54795;SDS011;40693;43.884;20.340;2022-08-04T03:32:35;10.40;;;7.63;;
54795;SDS011;40693;43.884;20.340;2022-08-04T03:35:27;9.77;;;7.30;;
54795;SDS011;40693;43.884;20.340;2022-08-04T04:01:42;9.82;;;7.53;;
54795;SDS011;40693;43.884;20.340;2022-08-04T04:06:56;16.05;;;8.43;;
54795;SDS011;40693;43.884;20.340;2022-08-04T04:12:34;13.93;;;8.88;;
54795;SDS011;40693;43.884;20.340;2022-08-04T04:37:28;13.80;;;8.35;;
54795;SDS011;40693;43.884;20.340;2022-08-04T04:42:39;15.25;;;8.80;;
54795;SDS011;40693;43.884;20.340;2022-08-04T04:53:37;11.07;;;8.57;;
54795;SDS011;40693;43.884;20.340;2022-08-04T04:56:11;9.77;;;7.85;;
54795;SDS011;40693;43.884;20.340;2022-08-04T04:59:01;30.20;;;9.63;;
54795;SDS011;40693;43.884;20.340;2022-08-04T05:04:54;13.10;;;8.45;;
54795;SDS011;40693;43.884;20.340;2022-08-04T05:10:37;8.73;;;7.82;;
54795;SDS011;40693;43.884;20.340;2022-08-04T05:15:47;14.40;;;9.68;;
54795;SDS011;40693;43.884;20.340;2022-08-04T05:18:21;13.52;;;9.80;;
54795;SDS011;40693;43.884;20.340;2022-08-04T05:20:50;16.65;;;9.60;;
54795;SDS011;40693;43.884;20.340;2022-08-04T05:23:22;14.57;;;9.40;;
54795;SDS011;40693;43.884;20.340;2022-08-04T05:28:21;13.70;;;9.73;;
54795;SDS011;40693;43.884;20.340;2022-08-04T05:31:52;14.27;;;9.93;;
54795;SDS011;40693;43.884;20.340;2022-08-04T05:33:59;12.70;;;9.63;;
54795;SDS011;40693;43.884;20.340;2022-08-04T05:36:37;21.05;;;10.10;;
54795;SDS011;40693;43.884;20.340;2022-08-04T05:39:09;16.27;;;10.25;;
54795;SDS011;40693;43.884;20.340;2022-08-04T05:41:39;12.43;;;9.38;;
54795;SDS011;40693;43.884;20.340;2022-08-04T05:44:07;17.52;;;9.27;;
54795;SDS011;40693;43.884;20.340;2022-08-04T05:46:34;16.20;;;10.55;;
54795;SDS011;40693;43.884;20.340;2022-08-04T05:49:01;25.27;;;15.23;;
54795;SDS011;40693;43.884;20.340;2022-08-04T05:51:28;35.65;;;22.13;;
54795;SDS011;40693;43.884;20.340;2022-08-04T05:53:55;38.40;;;25.27;;
54795;SDS011;40693;43.884;20.340;2022-08-04T05:56:22;39.88;;;26.60;;
54795;SDS011;40693;43.884;20.340;2022-08-04T05:58:48;44.22;;;27.95;;
54795;SDS011;40693;43.884;20.340;2022-08-04T06:01:16;44.25;;;27.65;;
54795;SDS011;40693;43.884;20.340;2022-08-04T06:03:44;46.50;;;29.80;;
54795;SDS011;40693;43.884;20.340;2022-08-04T06:06:11;41.40;;;28.33;;
54795;SDS011;40693;43.884;20.340;2022-08-04T06:12:13;34.90;;;22.88;;
54795;SDS011;40693;43.884;20.340;2022-08-04T06:14:44;33.60;;;22.58;;
54795;SDS011;40693;43.884;20.340;2022-08-04T06:17:14;41.05;;;22.08;;
54795;SDS011;40693;43.884;20.340;2022-08-04T06:19:57;30.25;;;20.45;;
54795;SDS011;40693;43.884;20.340;2022-08-04T06:22:25;28.67;;;18.88;;
54795;SDS011;40693;43.884;20.340;2022-08-04T06:24:53;23.83;;;15.82;;
54795;SDS011;40693;43.884;20.340;2022-08-04T06:27:20;23.42;;;15.57;;
54795;SDS011;40693;43.884;20.340;2022-08-04T06:29:47;21.20;;;15.40;;
54795;SDS011;40693;43.884;20.340;2022-08-04T06:32:14;23.30;;;16.95;;
54795;SDS011;40693;43.884;20.340;2022-08-04T06:34:56;24.25;;;15.52;;
54795;SDS011;40693;43.884;20.340;2022-08-04T06:37:25;23.80;;;14.43;;
54795;SDS011;40693;43.884;20.340;2022-08-04T06:39:52;22.63;;;14.00;;
54795;SDS011;40693;43.884;20.340;2022-08-04T06:42:21;19.13;;;13.50;;
54795;SDS011;40693;43.884;20.340;2022-08-04T06:44:50;17.77;;;11.45;;
54795;SDS011;40693;43.884;20.340;2022-08-04T06:47:19;15.90;;;11.70;;
54795;SDS011;40693;43.884;20.340;2022-08-04T06:49:47;17.88;;;11.68;;
54795;SDS011;40693;43.884;20.340;2022-08-04T06:52:15;18.17;;;12.48;;
54795;SDS011;40693;43.884;20.340;2022-08-04T06:54:45;17.13;;;12.35;;
54795;SDS011;40693;43.884;20.340;2022-08-04T06:57:20;18.00;;;11.73;;
54795;SDS011;40693;43.884;20.340;2022-08-04T06:59:50;19.52;;;12.30;;
54795;SDS011;40693;43.884;20.340;2022-08-04T07:02:21;17.17;;;11.88;;
54795;SDS011;40693;43.884;20.340;2022-08-04T07:04:50;12.55;;;10.00;;
54795;SDS011;40693;43.884;20.340;2022-08-04T07:07:17;14.40;;;9.30;;
54795;SDS011;40693;43.884;20.340;2022-08-04T07:09:43;13.15;;;9.52;;
54795;SDS011;40693;43.884;20.340;2022-08-04T07:12:10;9.15;;;8.23;;
54795;SDS011;40693;43.884;20.340;2022-08-04T07:14:37;15.98;;;8.60;;
54795;SDS011;40693;43.884;20.340;2022-08-04T07:17:05;12.38;;;7.68;;
54795;SDS011;40693;43.884;20.340;2022-08-04T07:19:32;10.20;;;7.15;;
54795;SDS011;40693;43.884;20.340;2022-08-04T07:22:02;7.30;;;6.30;;
54795;SDS011;40693;43.884;20.340;2022-08-04T07:24:32;10.23;;;6.28;;
54795;SDS011;40693;43.884;20.340;2022-08-04T07:26:59;6.80;;;6.10;;
54795;SDS011;40693;43.884;20.340;2022-08-04T07:29:26;10.18;;;6.38;;
54795;SDS011;40693;43.884;20.340;2022-08-04T07:31:56;8.90;;;6.13;;
54795;SDS011;40693;43.884;20.340;2022-08-04T07:34:23;6.55;;;5.88;;
54795;SDS011;40693;43.884;20.340;2022-08-04T07:36:54;6.90;;;5.75;;
54795;SDS011;40693;43.884;20.340;2022-08-04T07:39:23;7.75;;;6.55;;
54795;SDS011;40693;43.884;20.340;2022-08-04T07:41:50;9.43;;;6.25;;
54795;SDS011;40693;43.884;20.340;2022-08-04T07:44:17;15.65;;;6.00;;
54795;SDS011;40693;43.884;20.340;2022-08-04T07:46:44;12.07;;;6.65;;
54795;SDS011;40693;43.884;20.340;2022-08-04T07:49:10;9.43;;;7.10;;
54795;SDS011;40693;43.884;20.340;2022-08-04T07:51:37;7.95;;;7.13;;
54795;SDS011;40693;43.884;20.340;2022-08-04T07:54:04;11.20;;;6.63;;
54795;SDS011;40693;43.884;20.340;2022-08-04T07:56:36;12.05;;;7.00;;
54795;SDS011;40693;43.884;20.340;2022-08-04T07:59:04;11.20;;;5.93;;
54795;SDS011;40693;43.884;20.340;2022-08-04T08:01:31;12.27;;;6.60;;
54795;SDS011;40693;43.884;20.340;2022-08-04T08:03:59;9.35;;;5.82;;
54795;SDS011;40693;43.884;20.340;2022-08-04T08:06:25;8.43;;;6.20;;
54795;SDS011;40693;43.884;20.340;2022-08-04T08:08:54;8.85;;;6.22;;
54795;SDS011;40693;43.884;20.340;2022-08-04T08:11:20;9.13;;;5.95;;
54795;SDS011;40693;43.884;20.340;2022-08-04T08:13:46;12.63;;;6.53;;
54795;SDS011;40693;43.884;20.340;2022-08-04T08:16:13;9.57;;;7.07;;
54795;SDS011;40693;43.884;20.340;2022-08-04T08:18:39;10.32;;;6.35;;
54795;SDS011;40693;43.884;20.340;2022-08-04T08:21:05;10.25;;;6.65;;
54795;SDS011;40693;43.884;20.340;2022-08-04T08:23:33;8.80;;;5.45;;
54795;SDS011;40693;43.884;20.340;2022-08-04T08:26:00;10.43;;;6.60;;
54795;SDS011;40693;43.884;20.340;2022-08-04T08:28:26;10.93;;;5.93;;
54795;SDS011;40693;43.884;20.340;2022-08-04T08:30:52;11.63;;;6.00;;
54795;SDS011;40693;43.884;20.340;2022-08-04T08:33:18;9.73;;;6.97;;
54795;SDS011;40693;43.884;20.340;2022-08-04T08:38:19;7.43;;;6.32;;
54795;SDS011;40693;43.884;20.340;2022-08-04T08:52:25;5.03;;;4.50;;
54795;SDS011;40693;43.884;20.340;2022-08-04T09:04:19;6.05;;;4.45;;
54795;SDS011;40693;43.884;20.340;2022-08-04T09:07:12;7.60;;;4.70;;
54795;SDS011;40693;43.884;20.340;2022-08-04T09:10:05;8.48;;;4.35;;
54795;SDS011;40693;43.884;20.340;2022-08-04T09:15:35;8.10;;;4.57;;
54795;SDS011;40693;43.884;20.340;2022-08-04T09:21:03;7.72;;;4.50;;
54795;SDS011;40693;43.884;20.340;2022-08-04T09:23:57;5.95;;;3.90;;
54795;SDS011;40693;43.884;20.340;2022-08-04T09:29:18;7.45;;;3.90;;
54795;SDS011;40693;43.884;20.340;2022-08-04T09:32:01;6.95;;;3.80;;
54795;SDS011;40693;43.884;20.340;2022-08-04T09:37:26;6.75;;;3.60;;
54795;SDS011;40693;43.884;20.340;2022-08-04T09:40:16;4.82;;;3.35;;
54795;SDS011;40693;43.884;20.340;2022-08-04T09:43:06;3.53;;;3.17;;
54795;SDS011;40693;43.884;20.340;2022-08-04T09:48:24;3.63;;;3.03;;
54795;SDS011;40693;43.884;20.340;2022-08-04T09:50:58;5.80;;;3.93;;
54795;SDS011;40693;43.884;20.340;2022-08-04T09:56:19;7.20;;;3.83;;
54795;SDS011;40693;43.884;20.340;2022-08-04T10:01:37;8.35;;;3.42;;
54795;SDS011;40693;43.884;20.340;2022-08-04T10:04:05;3.53;;;3.22;;
54795;SDS011;40693;43.884;20.340;2022-08-04T10:17:30;6.07;;;3.45;;
54795;SDS011;40693;43.884;20.340;2022-08-04T10:22:36;6.70;;;3.00;;
54795;SDS011;40693;43.884;20.340;2022-08-04T10:28:11;4.70;;;3.47;;
54795;SDS011;40693;43.884;20.340;2022-08-04T10:30:42;8.13;;;3.60;;
54795;SDS011;40693;43.884;20.340;2022-08-04T10:35:53;5.78;;;3.10;;
54795;SDS011;40693;43.884;20.340;2022-08-04T10:38:31;4.82;;;3.25;;
54795;SDS011;40693;43.884;20.340;2022-08-04T10:43:50;5.13;;;2.72;;
54795;SDS011;40693;43.884;20.340;2022-08-04T10:46:36;5.40;;;2.78;;
54795;SDS011;40693;43.884;20.340;2022-08-04T10:49:32;3.50;;;2.78;;
54795;SDS011;40693;43.884;20.340;2022-08-04T10:55:03;7.63;;;3.27;;
54795;SDS011;40693;43.884;20.340;2022-08-04T10:57:41;3.30;;;2.72;;
54795;SDS011;40693;43.884;20.340;2022-08-04T11:00:18;3.33;;;2.83;;
54795;SDS011;40693;43.884;20.340;2022-08-04T11:05:38;4.95;;;3.00;;
54795;SDS011;40693;43.884;20.340;2022-08-04T11:08:28;4.35;;;3.10;;
54795;SDS011;40693;43.884;20.340;2022-08-04T11:13:48;4.35;;;3.30;;
54795;SDS011;40693;43.884;20.340;2022-08-04T11:16:20;5.55;;;3.40;;
54795;SDS011;40693;43.884;20.340;2022-08-04T11:21:57;4.68;;;2.97;;
54795;SDS011;40693;43.884;20.340;2022-08-04T11:26:59;3.83;;;3.03;;
54795;SDS011;40693;43.884;20.340;2022-08-04T11:29:32;5.78;;;3.42;;
54795;SDS011;40693;43.884;20.340;2022-08-04T11:32:19;6.65;;;3.17;;
54795;SDS011;40693;43.884;20.340;2022-08-04T11:34:53;4.15;;;3.50;;
54795;SDS011;40693;43.884;20.340;2022-08-04T11:37:34;5.20;;;3.17;;
54795;SDS011;40693;43.884;20.340;2022-08-04T11:40:12;5.95;;;3.60;;
54795;SDS011;40693;43.884;20.340;2022-08-04T11:42:51;5.60;;;3.20;;
54795;SDS011;40693;43.884;20.340;2022-08-04T11:45:33;4.53;;;2.90;;
54795;SDS011;40693;43.884;20.340;2022-08-04T11:48:04;6.43;;;3.42;;
54795;SDS011;40693;43.884;20.340;2022-08-04T11:50:45;3.83;;;3.42;;
54795;SDS011;40693;43.884;20.340;2022-08-04T11:53:17;3.63;;;3.20;;
54795;SDS011;40693;43.884;20.340;2022-08-04T11:55:48;5.35;;;3.80;;
54795;SDS011;40693;43.884;20.340;2022-08-04T11:58:16;4.68;;;3.30;;
54795;SDS011;40693;43.884;20.340;2022-08-04T12:06:54;5.10;;;2.67;;
54795;SDS011;40693;43.884;20.340;2022-08-04T12:09:47;7.10;;;3.47;;
54795;SDS011;40693;43.884;20.340;2022-08-04T12:12:24;4.72;;;3.67;;
54795;SDS011;40693;43.884;20.340;2022-08-04T12:17:46;4.43;;;3.22;;
54795;SDS011;40693;43.884;20.340;2022-08-04T12:20:21;6.00;;;3.75;;
54795;SDS011;40693;43.884;20.340;2022-08-04T12:22:49;3.70;;;3.13;;
54795;SDS011;40693;43.884;20.340;2022-08-04T12:25:21;7.25;;;3.47;;
54795;SDS011;40693;43.884;20.340;2022-08-04T12:27:56;4.35;;;3.58;;
54795;SDS011;40693;43.884;20.340;2022-08-04T12:30:28;5.88;;;3.58;;
54795;SDS011;40693;43.884;20.340;2022-08-04T12:33:01;3.97;;;3.05;;
54795;SDS011;40693;43.884;20.340;2022-08-04T12:35:47;5.50;;;3.28;;
54795;SDS011;40693;43.884;20.340;2022-08-04T12:38:20;4.25;;;3.10;;
54795;SDS011;40693;43.884;20.340;2022-08-04T12:40:54;4.15;;;3.45;;
54795;SDS011;40693;43.884;20.340;2022-08-04T12:45:54;4.28;;;3.40;;
54795;SDS011;40693;43.884;20.340;2022-08-04T12:48:23;3.40;;;3.10;;
54795;SDS011;40693;43.884;20.340;2022-08-04T12:50:51;7.15;;;3.15;;
54795;SDS011;40693;43.884;20.340;2022-08-04T12:53:19;3.47;;;3.17;;
54795;SDS011;40693;43.884;20.340;2022-08-04T12:55:50;3.35;;;2.90;;
54795;SDS011;40693;43.884;20.340;2022-08-04T12:58:17;8.00;;;3.30;;
54795;SDS011;40693;43.884;20.340;2022-08-04T13:01:01;4.38;;;2.55;;
54795;SDS011;40693;43.884;20.340;2022-08-04T13:03:52;5.00;;;2.53;;
54795;SDS011;40693;43.884;20.340;2022-08-04T13:06:21;7.25;;;3.38;;
54795;SDS011;40693;43.884;20.340;2022-08-04T13:08:50;5.78;;;3.00;;
54795;SDS011;40693;43.884;20.340;2022-08-04T13:11:18;4.38;;;3.30;;
54795;SDS011;40693;43.884;20.340;2022-08-04T13:13:46;3.95;;;3.10;;
54795;SDS011;40693;43.884;20.340;2022-08-04T13:16:18;5.38;;;3.65;;
54795;SDS011;40693;43.884;20.340;2022-08-04T13:18:56;6.78;;;3.60;;
54795;SDS011;40693;43.884;20.340;2022-08-04T13:21:24;4.85;;;3.15;;
54795;SDS011;40693;43.884;20.340;2022-08-04T13:23:53;5.47;;;3.28;;
54795;SDS011;40693;43.884;20.340;2022-08-04T13:26:22;3.45;;;2.88;;
54795;SDS011;40693;43.884;20.340;2022-08-04T13:28:50;4.20;;;3.50;;
54795;SDS011;40693;43.884;20.340;2022-08-04T13:31:21;7.72;;;3.13;;
54795;SDS011;40693;43.884;20.340;2022-08-04T13:33:51;5.45;;;3.35;;
54795;SDS011;40693;43.884;20.340;2022-08-04T13:36:23;5.30;;;3.28;;
54795;SDS011;40693;43.884;20.340;2022-08-04T13:38:54;7.32;;;2.92;;
54795;SDS011;40693;43.884;20.340;2022-08-04T13:41:24;3.85;;;2.67;;
54795;SDS011;40693;43.884;20.340;2022-08-04T13:43:56;5.10;;;2.97;;
54795;SDS011;40693;43.884;20.340;2022-08-04T13:46:30;3.30;;;2.65;;
54795;SDS011;40693;43.884;20.340;2022-08-04T13:48:58;6.40;;;2.95;;
54795;SDS011;40693;43.884;20.340;2022-08-04T13:51:31;3.83;;;3.40;;
54795;SDS011;40693;43.884;20.340;2022-08-04T13:53:59;3.78;;;2.88;;
54795;SDS011;40693;43.884;20.340;2022-08-04T13:56:37;3.80;;;2.85;;
54795;SDS011;40693;43.884;20.340;2022-08-04T13:59:07;4.20;;;3.22;;
54795;SDS011;40693;43.884;20.340;2022-08-04T14:01:37;5.13;;;3.38;;
54795;SDS011;40693;43.884;20.340;2022-08-04T14:04:22;3.60;;;3.30;;
54795;SDS011;40693;43.884;20.340;2022-08-04T14:09:26;4.47;;;2.83;;
54795;SDS011;40693;43.884;20.340;2022-08-04T14:11:53;4.18;;;3.53;;
54795;SDS011;40693;43.884;20.340;2022-08-04T14:14:28;3.72;;;2.85;;
54795;SDS011;40693;43.884;20.340;2022-08-04T14:16:56;6.00;;;3.03;;
54795;SDS011;40693;43.884;20.340;2022-08-04T14:27:48;3.70;;;2.88;;
54795;SDS011;40693;43.884;20.340;2022-08-04T14:32:57;5.13;;;2.75;;
54795;SDS011;40693;43.884;20.340;2022-08-04T14:35:23;4.20;;;3.10;;
54795;SDS011;40693;43.884;20.340;2022-08-04T14:37:57;4.82;;;2.90;;
54795;SDS011;40693;43.884;20.340;2022-08-04T14:40:25;5.10;;;2.80;;
54795;SDS011;40693;43.884;20.340;2022-08-04T14:42:55;3.97;;;3.22;;
54795;SDS011;40693;43.884;20.340;2022-08-04T14:45:42;4.38;;;3.00;;
54795;SDS011;40693;43.884;20.340;2022-08-04T14:48:10;6.10;;;3.17;;
54795;SDS011;40693;43.884;20.340;2022-08-04T14:53:05;3.83;;;3.25;;
54795;SDS011;40693;43.884;20.340;2022-08-04T14:55:34;6.70;;;3.83;;
54795;SDS011;40693;43.884;20.340;2022-08-04T14:58:01;13.23;;;3.60;;
54795;SDS011;40693;43.884;20.340;2022-08-04T15:00:32;4.53;;;3.20;;
54795;SDS011;40693;43.884;20.340;2022-08-04T15:03:00;5.72;;;3.20;;
54795;SDS011;40693;43.884;20.340;2022-08-04T15:05:32;6.28;;;3.83;;
54795;SDS011;40693;43.884;20.340;2022-08-04T15:07:58;5.55;;;3.38;;
54795;SDS011;40693;43.884;20.340;2022-08-04T15:10:25;7.53;;;3.55;;
54795;SDS011;40693;43.884;20.340;2022-08-04T15:12:52;5.55;;;3.83;;
54795;SDS011;40693;43.884;20.340;2022-08-04T15:15:18;7.30;;;3.50;;
54795;SDS011;40693;43.884;20.340;2022-08-04T15:17:44;4.07;;;3.53;;
54795;SDS011;40693;43.884;20.340;2022-08-04T15:20:11;3.78;;;3.38;;
54795;SDS011;40693;43.884;20.340;2022-08-04T15:22:37;6.30;;;3.65;;
54795;SDS011;40693;43.884;20.340;2022-08-04T15:25:03;4.75;;;3.78;;
54795;SDS011;40693;43.884;20.340;2022-08-04T15:27:30;7.18;;;4.10;;
54795;SDS011;40693;43.884;20.340;2022-08-04T15:30:06;5.70;;;4.00;;
54795;SDS011;40693;43.884;20.340;2022-08-04T15:32:35;4.68;;;3.60;;
54795;SDS011;40693;43.884;20.340;2022-08-04T15:35:07;4.40;;;3.47;;
54795;SDS011;40693;43.884;20.340;2022-08-04T15:40:43;6.65;;;3.65;;
54795;SDS011;40693;43.884;20.340;2022-08-04T15:46:09;5.03;;;3.50;;
54795;SDS011;40693;43.884;20.340;2022-08-04T15:48:34;4.25;;;3.38;;
54795;SDS011;40693;43.884;20.340;2022-08-04T15:51:03;4.88;;;4.00;;
54795;SDS011;40693;43.884;20.340;2022-08-04T15:58:54;5.85;;;3.90;;
54795;SDS011;40693;43.884;20.340;2022-08-04T16:01:20;6.70;;;3.53;;
54795;SDS011;40693;43.884;20.340;2022-08-04T16:03:49;4.43;;;3.20;;
54795;SDS011;40693;43.884;20.340;2022-08-04T16:24:20;5.28;;;4.07;;
54795;SDS011;40693;43.884;20.340;2022-08-04T16:26:56;7.63;;;3.92;;
54795;SDS011;40693;43.884;20.340;2022-08-04T16:37:21;5.35;;;4.28;;
54795;SDS011;40693;43.884;20.340;2022-08-04T16:39:48;5.95;;;3.83;;
54795;SDS011;40693;43.884;20.340;2022-08-04T16:42:34;5.25;;;3.85;;
54795;SDS011;40693;43.884;20.340;2022-08-04T16:50:10;6.57;;;4.00;;
54795;SDS011;40693;43.884;20.340;2022-08-04T16:52:47;8.13;;;4.65;;
54795;SDS011;40693;43.884;20.340;2022-08-04T16:55:15;9.18;;;4.03;;
54795;SDS011;40693;43.884;20.340;2022-08-04T16:57:45;5.90;;;4.07;;
54795;SDS011;40693;43.884;20.340;2022-08-04T17:00:12;11.32;;;4.88;;
54795;SDS011;40693;43.884;20.340;2022-08-04T17:02:39;5.65;;;4.28;;
54795;SDS011;40693;43.884;20.340;2022-08-04T17:05:05;4.03;;;3.63;;
54795;SDS011;40693;43.884;20.340;2022-08-04T17:07:54;7.95;;;4.85;;
54795;SDS011;40693;43.884;20.340;2022-08-04T17:10:31;7.43;;;4.15;;
54795;SDS011;40693;43.884;20.340;2022-08-04T17:15:55;8.30;;;4.55;;
54795;SDS011;40693;43.884;20.340;2022-08-04T17:18:27;11.60;;;4.72;;
54795;SDS011;40693;43.884;20.340;2022-08-04T17:20:56;5.20;;;4.47;;
54795;SDS011;40693;43.884;20.340;2022-08-04T17:26:00;8.90;;;4.55;;
54795;SDS011;40693;43.884;20.340;2022-08-04T17:28:30;9.88;;;5.32;;
54795;SDS011;40693;43.884;20.340;2022-08-04T17:30:58;6.70;;;4.70;;
54795;SDS011;40693;43.884;20.340;2022-08-04T17:33:25;6.35;;;5.05;;
54795;SDS011;40693;43.884;20.340;2022-08-04T17:35:55;7.53;;;3.97;;
54795;SDS011;40693;43.884;20.340;2022-08-04T17:38:27;7.55;;;4.50;;
54795;SDS011;40693;43.884;20.340;2022-08-04T17:43:35;9.25;;;4.80;;
54795;SDS011;40693;43.884;20.340;2022-08-04T17:46:23;7.82;;;4.95;;
54795;SDS011;40693;43.884;20.340;2022-08-04T17:48:56;13.70;;;7.20;;
54795;SDS011;40693;43.884;20.340;2022-08-04T17:51:31;12.48;;;6.60;;
54795;SDS011;40693;43.884;20.340;2022-08-04T17:53:59;9.10;;;5.53;;
54795;SDS011;40693;43.884;20.340;2022-08-04T17:56:38;11.40;;;5.25;;
54795;SDS011;40693;43.884;20.340;2022-08-04T17:59:15;9.82;;;5.95;;
54795;SDS011;40693;43.884;20.340;2022-08-04T18:01:44;7.78;;;4.63;;
54795;SDS011;40693;43.884;20.340;2022-08-04T18:07:21;9.95;;;5.13;;
54795;SDS011;40693;43.884;20.340;2022-08-04T18:14:58;8.35;;;5.15;;
54795;SDS011;40693;43.884;20.340;2022-08-04T18:20:11;7.38;;;5.43;;
54795;SDS011;40693;43.884;20.340;2022-08-04T18:22:39;17.10;;;13.98;;
54795;SDS011;40693;43.884;20.340;2022-08-04T18:25:09;7.82;;;5.95;;
54795;SDS011;40693;43.884;20.340;2022-08-04T18:27:49;10.55;;;7.20;;
54795;SDS011;40693;43.884;20.340;2022-08-04T18:30:18;10.57;;;6.35;;
54795;SDS011;40693;43.884;20.340;2022-08-04T18:32:45;16.00;;;6.68;;
54795;SDS011;40693;43.884;20.340;2022-08-04T18:35:11;17.40;;;7.18;;
54795;SDS011;40693;43.884;20.340;2022-08-04T18:37:37;9.88;;;5.53;;
54795;SDS011;40693;43.884;20.340;2022-08-04T18:40:05;9.55;;;5.47;;
54795;SDS011;40693;43.884;20.340;2022-08-04T18:42:32;9.30;;;5.80;;
54795;SDS011;40693;43.884;20.340;2022-08-04T18:44:58;11.48;;;5.60;;
54795;SDS011;40693;43.884;20.340;2022-08-04T18:47:23;18.10;;;6.07;;
54795;SDS011;40693;43.884;20.340;2022-08-04T18:49:52;11.10;;;5.90;;
54795;SDS011;40693;43.884;20.340;2022-08-04T18:52:19;17.13;;;6.95;;
54795;SDS011;40693;43.884;20.340;2022-08-04T18:54:45;8.38;;;5.80;;
54795;SDS011;40693;43.884;20.340;2022-08-04T18:57:16;10.43;;;5.95;;
54795;SDS011;40693;43.884;20.340;2022-08-04T18:59:44;9.57;;;5.65;;
54795;SDS011;40693;43.884;20.340;2022-08-04T19:02:09;5.57;;;4.88;;
54795;SDS011;40693;43.884;20.340;2022-08-04T19:04:35;6.90;;;4.65;;
54795;SDS011;40693;43.884;20.340;2022-08-04T19:07:01;9.98;;;5.75;;
54795;SDS011;40693;43.884;20.340;2022-08-04T19:09:28;7.25;;;5.80;;
54795;SDS011;40693;43.884;20.340;2022-08-04T19:11:53;9.77;;;6.10;;
54795;SDS011;40693;43.884;20.340;2022-08-04T19:14:19;7.13;;;5.25;;
54795;SDS011;40693;43.884;20.340;2022-08-04T19:16:45;6.85;;;4.72;;
54795;SDS011;40693;43.884;20.340;2022-08-04T19:19:12;9.13;;;5.57;;
54795;SDS011;40693;43.884;20.340;2022-08-04T19:21:39;7.13;;;5.30;;
54795;SDS011;40693;43.884;20.340;2022-08-04T19:24:05;5.85;;;5.00;;
54795;SDS011;40693;43.884;20.340;2022-08-04T19:26:31;9.90;;;5.70;;
54795;SDS011;40693;43.884;20.340;2022-08-04T19:28:57;6.28;;;5.07;;
54795;SDS011;40693;43.884;20.340;2022-08-04T19:31:23;10.65;;;5.85;;
54795;SDS011;40693;43.884;20.340;2022-08-04T19:33:49;10.23;;;5.07;;
54795;SDS011;40693;43.884;20.340;2022-08-04T19:36:15;7.57;;;5.45;;
54795;SDS011;40693;43.884;20.340;2022-08-04T19:38:40;5.68;;;4.30;;
54795;SDS011;40693;43.884;20.340;2022-08-04T19:41:07;12.15;;;4.95;;
54795;SDS011;40693;43.884;20.340;2022-08-04T19:43:33;10.88;;;5.85;;
54795;SDS011;40693;43.884;20.340;2022-08-04T19:45:59;6.65;;;5.20;;
54795;SDS011;40693;43.884;20.340;2022-08-04T19:48:26;6.47;;;5.03;;
54795;SDS011;40693;43.884;20.340;2022-08-04T19:50:52;7.72;;;4.93;;
54795;SDS011;40693;43.884;20.340;2022-08-04T19:53:18;5.47;;;4.85;;
54795;SDS011;40693;43.884;20.340;2022-08-04T19:55:44;5.80;;;5.00;;
54795;SDS011;40693;43.884;20.340;2022-08-04T19:58:10;6.72;;;4.65;;
54795;SDS011;40693;43.884;20.340;2022-08-04T20:00:37;7.03;;;4.97;;
54795;SDS011;40693;43.884;20.340;2022-08-04T20:03:05;7.10;;;5.15;;
54795;SDS011;40693;43.884;20.340;2022-08-04T20:05:32;5.38;;;4.53;;